sensor_id;sensor_type;location;lat;lon;timestamp;pressure;altitude;pressure_sealevel;temperature;humidity
42587;BME280;28216;53.362;-6.288;2023-07-20T00:02:19;101671.41;;;15.52;100.00
42587;BME280;28216;53.362;-6.288;2023-07-20T00:04:44;101671.88;;;15.56;100.00
42587;BME280;28216;53.362;-6.288;2023-07-20T00:07:10;101666.75;;;15.54;100.00
42587;BME280;28216;53.362;-6.288;2023-07-20T00:09:35;101670.41;;;15.53;100.00
42587;BME280;28216;53.362;-6.288;2023-07-20T00:12:01;101675.84;;;15.52;100.00
42587;BME280;28216;53.362;-6.288;2023-07-20T00:14:26;101673.38;;;15.50;100.00
42587;BME280;28216;53.362;-6.288;2023-07-20T00:16:52;101677.69;;;15.51;100.00
42587;BME280;28216;53.362;-6.288;2023-07-20T00:19:24;101674.22;;;15.51;100.00
42587;BME280;28216;53.362;-6.288;2023-07-20T00:21:50;101671.72;;;15.49;100.00
42587;BME280;28216;53.362;-6.288;2023-07-20T00:24:16;101671.06;;;15.47;100.00
42587;BME280;28216;53.362;-6.288;2023-07-20T00:26:42;101672.41;;;15.43;100.00
42587;BME280;28216;53.362;-6.288;2023-07-20T00:29:07;101678.69;;;15.42;100.00
42587;BME280;28216;53.362;-6.288;2023-07-20T00:31:32;101675.56;;;15.39;100.00
42587;BME280;28216;53.362;-6.288;2023-07-20T00:34:00;101677.72;;;15.35;100.00
42587;BME280;28216;53.362;-6.288;2023-07-20T00:36:25;101677.22;;;15.32;100.00
42587;BME280;28216;53.362;-6.288;2023-07-20T00:38:51;101671.13;;;15.31;100.00
42587;BME280;28216;53.362;-6.288;2023-07-20T00:41:16;101673.91;;;15.30;100.00
42587;BME280;28216;53.362;-6.288;2023-07-20T00:43:42;101674.09;;;15.28;100.00
42587;BME280;28216;53.362;-6.288;2023-07-20T00:46:08;101673.44;;;15.26;100.00
42587;BME280;28216;53.362;-6.288;2023-07-20T00:48:34;101671.47;;;15.20;100.00
42587;BME280;28216;53.362;-6.288;2023-07-20T00:51:01;101681.53;;;15.16;100.00
42587;BME280;28216;53.362;-6.288;2023-07-20T00:53:28;101670.47;;;15.13;100.00
42587;BME280;28216;53.362;-6.288;2023-07-20T00:55:53;101678.41;;;15.13;100.00
42587;BME280;28216;53.362;-6.288;2023-07-20T00:58:19;101682.88;;;15.12;100.00
42587;BME280;28216;53.362;-6.288;2023-07-20T01:00:45;101686.66;;;15.10;100.00
42587;BME280;28216;53.362;-6.288;2023-07-20T01:03:12;101673.63;;;15.08;100.00
42587;BME280;28216;53.362;-6.288;2023-07-20T01:05:48;101668.34;;;15.08;100.00
42587;BME280;28216;53.362;-6.288;2023-07-20T01:08:35;101661.56;;;15.06;100.00
42587;BME280;28216;53.362;-6.288;2023-07-20T01:11:16;101677.41;;;15.06;100.00
42587;BME280;28216;53.362;-6.288;2023-07-20T01:13:43;101683.69;;;15.05;100.00
42587;BME280;28216;53.362;-6.288;2023-07-20T01:16:09;101679.72;;;15.01;100.00
42587;BME280;28216;53.362;-6.288;2023-07-20T01:18:34;101686.66;;;15.02;100.00
42587;BME280;28216;53.362;-6.288;2023-07-20T01:21:04;101681.38;;;15.02;100.00
42587;BME280;28216;53.362;-6.288;2023-07-20T01:26:32;101674.63;;;14.99;100.00
42587;BME280;28216;53.362;-6.288;2023-07-20T01:31:31;101676.44;;;14.99;100.00
42587;BME280;28216;53.362;-6.288;2023-07-20T01:34:00;101670.50;;;14.97;100.00
42587;BME280;28216;53.362;-6.288;2023-07-20T01:36:30;101664.38;;;14.96;100.00
42587;BME280;28216;53.362;-6.288;2023-07-20T01:38:56;101664.72;;;14.93;100.00
42587;BME280;28216;53.362;-6.288;2023-07-20T01:41:22;101664.72;;;14.93;100.00
42587;BME280;28216;53.362;-6.288;2023-07-20T01:43:48;101663.88;;;14.92;100.00
42587;BME280;28216;53.362;-6.288;2023-07-20T01:46:14;101666.88;;;14.89;100.00
42587;BME280;28216;53.362;-6.288;2023-07-20T01:48:39;101659.28;;;14.86;100.00
42587;BME280;28216;53.362;-6.288;2023-07-20T01:51:05;101666.50;;;14.84;100.00
42587;BME280;28216;53.362;-6.288;2023-07-20T01:53:30;101661.56;;;14.81;100.00
42587;BME280;28216;53.362;-6.288;2023-07-20T01:55:56;101649.84;;;14.76;100.00
42587;BME280;28216;53.362;-6.288;2023-07-20T01:58:22;101655.28;;;14.74;100.00
42587;BME280;28216;53.362;-6.288;2023-07-20T02:00:48;101661.56;;;14.73;100.00
42587;BME280;28216;53.362;-6.288;2023-07-20T02:03:13;101653.31;;;14.68;100.00
42587;BME280;28216;53.362;-6.288;2023-07-20T02:05:39;101657.09;;;14.66;100.00
42587;BME280;28216;53.362;-6.288;2023-07-20T02:08:04;101653.63;;;14.65;100.00
42587;BME280;28216;53.362;-6.288;2023-07-20T02:10:30;101655.94;;;14.68;100.00
42587;BME280;28216;53.362;-6.288;2023-07-20T02:12:55;101651.81;;;14.66;100.00
42587;BME280;28216;53.362;-6.288;2023-07-20T02:15:21;101656.75;;;14.69;100.00
42587;BME280;28216;53.362;-6.288;2023-07-20T02:17:46;101649.66;;;14.69;100.00
42587;BME280;28216;53.362;-6.288;2023-07-20T02:20:12;101653.13;;;14.70;100.00
42587;BME280;28216;53.362;-6.288;2023-07-20T02:22:38;101648.69;;;14.70;100.00
42587;BME280;28216;53.362;-6.288;2023-07-20T02:25:07;101648.84;;;14.69;100.00
42587;BME280;28216;53.362;-6.288;2023-07-20T02:27:33;101646.03;;;14.70;100.00
42587;BME280;28216;53.362;-6.288;2023-07-20T02:29:59;101652.31;;;14.69;100.00
42587;BME280;28216;53.362;-6.288;2023-07-20T02:32:25;101650.34;;;14.71;100.00
42587;BME280;28216;53.362;-6.288;2023-07-20T02:34:51;101651.00;;;14.73;100.00
42587;BME280;28216;53.362;-6.288;2023-07-20T02:37:17;101646.22;;;14.69;100.00
42587;BME280;28216;53.362;-6.288;2023-07-20T02:39:42;101647.03;;;14.69;100.00
42587;BME280;28216;53.362;-6.288;2023-07-20T02:42:08;101645.38;;;14.68;100.00
42587;BME280;28216;53.362;-6.288;2023-07-20T02:44:33;101642.56;;;14.70;100.00
42587;BME280;28216;53.362;-6.288;2023-07-20T02:46:59;101635.00;;;14.67;100.00
42587;BME280;28216;53.362;-6.288;2023-07-20T02:49:24;101634.50;;;14.63;100.00
42587;BME280;28216;53.362;-6.288;2023-07-20T02:51:51;101632.84;;;14.62;100.00
42587;BME280;28216;53.362;-6.288;2023-07-20T02:54:16;101628.88;;;14.58;100.00
42587;BME280;28216;53.362;-6.288;2023-07-20T02:56:42;101630.53;;;14.51;100.00
42587;BME280;28216;53.362;-6.288;2023-07-20T02:59:08;101636.47;;;14.45;100.00
42587;BME280;28216;53.362;-6.288;2023-07-20T03:01:33;101629.31;;;14.37;100.00
42587;BME280;28216;53.362;-6.288;2023-07-20T03:03:59;101631.47;;;14.34;100.00
42587;BME280;28216;53.362;-6.288;2023-07-20T03:06:24;101630.81;;;14.31;100.00
42587;BME280;28216;53.362;-6.288;2023-07-20T03:08:50;101630.97;;;14.30;100.00
42587;BME280;28216;53.362;-6.288;2023-07-20T03:11:18;101625.69;;;14.30;100.00
42587;BME280;28216;53.362;-6.288;2023-07-20T03:13:44;101633.59;;;14.30;100.00
42587;BME280;28216;53.362;-6.288;2023-07-20T03:16:11;101626.50;;;14.30;100.00
42587;BME280;28216;53.362;-6.288;2023-07-20T03:18:38;101625.69;;;14.30;100.00
42587;BME280;28216;53.362;-6.288;2023-07-20T03:21:04;101621.56;;;14.27;100.00
42587;BME280;28216;53.362;-6.288;2023-07-20T03:23:30;101623.38;;;14.27;100.00
42587;BME280;28216;53.362;-6.288;2023-07-20T03:25:56;101616.44;;;14.26;100.00
42587;BME280;28216;53.362;-6.288;2023-07-20T03:28:21;101621.06;;;14.24;100.00
42587;BME280;28216;53.362;-6.288;2023-07-20T03:30:53;101625.50;;;14.23;100.00
42587;BME280;28216;53.362;-6.288;2023-07-20T03:33:18;101620.56;;;14.20;100.00
42587;BME280;28216;53.362;-6.288;2023-07-20T03:35:43;101621.06;;;14.24;100.00
42587;BME280;28216;53.362;-6.288;2023-07-20T03:38:09;101623.69;;;14.24;100.00
42587;BME280;28216;53.362;-6.288;2023-07-20T03:40:34;101622.03;;;14.23;100.00
42587;BME280;28216;53.362;-6.288;2023-07-20T03:43:00;101626.34;;;14.24;100.00
42587;BME280;28216;53.362;-6.288;2023-07-20T03:45:25;101627.16;;;14.24;100.00
42587;BME280;28216;53.362;-6.288;2023-07-20T03:47:51;101625.19;;;14.26;100.00
42587;BME280;28216;53.362;-6.288;2023-07-20T03:50:16;101625.19;;;14.26;100.00
42587;BME280;28216;53.362;-6.288;2023-07-20T03:52:41;101630.78;;;14.23;100.00
42587;BME280;28216;53.362;-6.288;2023-07-20T03:55:07;101624.84;;;14.21;100.00
42587;BME280;28216;53.362;-6.288;2023-07-20T03:57:33;101638.03;;;14.21;100.00
42587;BME280;28216;53.362;-6.288;2023-07-20T03:59:58;101638.69;;;14.23;100.00
42587;BME280;28216;53.362;-6.288;2023-07-20T04:02:24;101626.50;;;14.22;100.00
42587;BME280;28216;53.362;-6.288;2023-07-20T04:04:50;101631.09;;;14.20;100.00
42587;BME280;28216;53.362;-6.288;2023-07-20T04:07:16;101622.22;;;14.21;100.00
42587;BME280;28216;53.362;-6.288;2023-07-20T04:09:41;101622.38;;;14.20;100.00
42587;BME280;28216;53.362;-6.288;2023-07-20T04:12:07;101624.84;;;14.21;100.00
42587;BME280;28216;53.362;-6.288;2023-07-20T04:14:32;101624.69;;;14.23;100.00
42587;BME280;28216;53.362;-6.288;2023-07-20T04:16:58;101628.16;;;14.23;100.00
42587;BME280;28216;53.362;-6.288;2023-07-20T04:19:25;101621.88;;;14.24;100.00
42587;BME280;28216;53.362;-6.288;2023-07-20T04:21:51;101622.72;;;14.25;100.00
42587;BME280;28216;53.362;-6.288;2023-07-20T04:24:16;101627.31;;;14.23;100.00
42587;BME280;28216;53.362;-6.288;2023-07-20T04:26:42;101629.47;;;14.19;100.00
42587;BME280;28216;53.362;-6.288;2023-07-20T04:29:07;101640.84;;;14.20;100.00
42587;BME280;28216;53.362;-6.288;2023-07-20T04:31:33;101628.63;;;14.19;100.00
42587;BME280;28216;53.362;-6.288;2023-07-20T04:33:59;101633.41;;;14.15;100.00
42587;BME280;28216;53.362;-6.288;2023-07-20T04:36:24;101646.28;;;14.18;100.00
42587;BME280;28216;53.362;-6.288;2023-07-20T04:38:50;101631.28;;;14.19;100.00
42587;BME280;28216;53.362;-6.288;2023-07-20T04:41:15;101629.28;;;14.21;100.00
42587;BME280;28216;53.362;-6.288;2023-07-20T04:43:44;101627.66;;;14.20;100.00
42587;BME280;28216;53.362;-6.288;2023-07-20T04:46:13;101630.44;;;14.18;100.00
42587;BME280;28216;53.362;-6.288;2023-07-20T04:48:38;101627.16;;;14.16;100.00
42587;BME280;28216;53.362;-6.288;2023-07-20T04:51:06;101628.78;;;14.17;100.00
42587;BME280;28216;53.362;-6.288;2023-07-20T04:53:31;101618.25;;;14.17;100.00
42587;BME280;28216;53.362;-6.288;2023-07-20T04:55:56;101625.34;;;14.17;100.00
42587;BME280;28216;53.362;-6.288;2023-07-20T04:58:22;101621.72;;;14.18;100.00
42587;BME280;28216;53.362;-6.288;2023-07-20T05:00:49;101629.47;;;14.19;100.00
42587;BME280;28216;53.362;-6.288;2023-07-20T05:03:14;101623.34;;;14.19;100.00
42587;BME280;28216;53.362;-6.288;2023-07-20T05:05:40;101624.03;;;14.21;100.00
42587;BME280;28216;53.362;-6.288;2023-07-20T05:08:05;101621.53;;;14.19;100.00
42587;BME280;28216;53.362;-6.288;2023-07-20T05:10:31;101620.25;;;14.23;100.00
42587;BME280;28216;53.362;-6.288;2023-07-20T05:12:57;101624.19;;;14.27;100.00
42587;BME280;28216;53.362;-6.288;2023-07-20T05:15:23;101623.22;;;14.28;100.00
42587;BME280;28216;53.362;-6.288;2023-07-20T05:17:48;101617.59;;;14.31;100.00
42587;BME280;28216;53.362;-6.288;2023-07-20T05:20:14;101620.09;;;14.33;100.00
42587;BME280;28216;53.362;-6.288;2023-07-20T05:22:40;101619.75;;;14.36;100.00
42587;BME280;28216;53.362;-6.288;2023-07-20T05:25:09;101620.25;;;14.40;100.00
42587;BME280;28216;53.362;-6.288;2023-07-20T05:27:37;101617.47;;;14.41;100.00
42587;BME280;28216;53.362;-6.288;2023-07-20T05:30:02;101618.28;;;14.42;100.00
42587;BME280;28216;53.362;-6.288;2023-07-20T05:32:28;101618.28;;;14.42;100.00
42587;BME280;28216;53.362;-6.288;2023-07-20T05:34:54;101611.72;;;14.46;100.00
42587;BME280;28216;53.362;-6.288;2023-07-20T05:37:19;101612.38;;;14.48;100.00
42587;BME280;28216;53.362;-6.288;2023-07-20T05:39:45;101606.63;;;14.52;100.00
42587;BME280;28216;53.362;-6.288;2023-07-20T05:42:10;101606.44;;;14.54;100.00
42587;BME280;28216;53.362;-6.288;2023-07-20T05:44:36;101597.38;;;14.56;100.00
42587;BME280;28216;53.362;-6.288;2023-07-20T05:47:01;101602.31;;;14.59;100.00
42587;BME280;28216;53.362;-6.288;2023-07-20T05:49:28;101606.63;;;14.60;100.00
42587;BME280;28216;53.362;-6.288;2023-07-20T05:51:54;101604.81;;;14.61;100.00
42587;BME280;28216;53.362;-6.288;2023-07-20T05:54:21;101596.56;;;14.64;100.00
42587;BME280;28216;53.362;-6.288;2023-07-20T05:56:46;101602.00;;;14.71;100.00
42587;BME280;28216;53.362;-6.288;2023-07-20T05:59:12;101604.31;;;14.74;100.00
42587;BME280;28216;53.362;-6.288;2023-07-20T06:01:38;101601.34;;;14.77;100.00
42587;BME280;28216;53.362;-6.288;2023-07-20T06:04:04;101598.19;;;14.81;100.00
42587;BME280;28216;53.362;-6.288;2023-07-20T06:06:29;101601.50;;;14.83;100.00
42587;BME280;28216;53.362;-6.288;2023-07-20T06:08:55;101595.06;;;14.86;100.00
42587;BME280;28216;53.362;-6.288;2023-07-20T06:11:20;101600.03;;;14.89;100.00
42587;BME280;28216;53.362;-6.288;2023-07-20T06:13:45;101602.16;;;14.93;100.00
42587;BME280;28216;53.362;-6.288;2023-07-20T06:16:11;101611.72;;;15.03;100.00
42587;BME280;28216;53.362;-6.288;2023-07-20T06:18:36;101606.09;;;15.06;100.00
42587;BME280;28216;53.362;-6.288;2023-07-20T06:21:02;101609.91;;;15.11;100.00
42587;BME280;28216;53.362;-6.288;2023-07-20T06:23:27;101612.84;;;15.16;100.00
42587;BME280;28216;53.362;-6.288;2023-07-20T06:25:53;101609.88;;;15.19;100.00
42587;BME280;28216;53.362;-6.288;2023-07-20T06:28:18;101615.66;;;15.23;100.00
42587;BME280;28216;53.362;-6.288;2023-07-20T06:30:44;101615.97;;;15.28;100.00
42587;BME280;28216;53.362;-6.288;2023-07-20T06:33:09;101626.03;;;15.33;100.00
42587;BME280;28216;53.362;-6.288;2023-07-20T06:35:35;101624.03;;;15.35;100.00
42587;BME280;28216;53.362;-6.288;2023-07-20T06:38:01;101627.81;;;15.40;100.00
42587;BME280;28216;53.362;-6.288;2023-07-20T06:40:30;101624.81;;;15.51;100.00
42587;BME280;28216;53.362;-6.288;2023-07-20T06:42:55;101623.16;;;15.58;100.00
42587;BME280;28216;53.362;-6.288;2023-07-20T06:45:21;101621.22;;;15.61;100.00
42587;BME280;28216;53.362;-6.288;2023-07-20T06:47:46;101625.97;;;15.65;100.00
42587;BME280;28216;53.362;-6.288;2023-07-20T06:50:12;101627.41;;;15.76;100.00
42587;BME280;28216;53.362;-6.288;2023-07-20T06:52:38;101631.97;;;15.90;100.00
42587;BME280;28216;53.362;-6.288;2023-07-20T06:55:05;101629.94;;;16.00;100.00
42587;BME280;28216;53.362;-6.288;2023-07-20T06:57:31;101627.09;;;16.10;100.00
42587;BME280;28216;53.362;-6.288;2023-07-20T06:59:57;101624.81;;;16.30;100.00
42587;BME280;28216;53.362;-6.288;2023-07-20T07:02:23;101629.25;;;16.60;100.00
42587;BME280;28216;53.362;-6.288;2023-07-20T07:04:48;101615.81;;;17.22;100.00
42587;BME280;28216;53.362;-6.288;2023-07-20T07:07:14;101613.59;;;17.99;100.00
42587;BME280;28216;53.362;-6.288;2023-07-20T07:09:40;101616.22;;;18.35;100.00
42587;BME280;28216;53.362;-6.288;2023-07-20T07:12:06;101610.69;;;19.01;100.00
42587;BME280;28216;53.362;-6.288;2023-07-20T07:14:32;101610.50;;;19.65;100.00
42587;BME280;28216;53.362;-6.288;2023-07-20T07:16:57;101606.50;;;19.89;100.00
42587;BME280;28216;53.362;-6.288;2023-07-20T07:19:23;101605.88;;;19.87;100.00
42587;BME280;28216;53.362;-6.288;2023-07-20T07:21:48;101607.56;;;20.01;100.00
42587;BME280;28216;53.362;-6.288;2023-07-20T07:24:13;101605.03;;;20.47;100.00
42587;BME280;28216;53.362;-6.288;2023-07-20T07:26:39;101602.53;;;21.18;100.00
42587;BME280;28216;53.362;-6.288;2023-07-20T07:29:05;101602.47;;;21.58;100.00
42587;BME280;28216;53.362;-6.288;2023-07-20T07:31:34;101603.19;;;21.85;100.00
42587;BME280;28216;53.362;-6.288;2023-07-20T07:34:03;101589.09;;;22.09;100.00
42587;BME280;28216;53.362;-6.288;2023-07-20T07:36:30;101585.84;;;22.39;100.00
42587;BME280;28216;53.362;-6.288;2023-07-20T07:38:55;101588.03;;;22.73;100.00
42587;BME280;28216;53.362;-6.288;2023-07-20T07:41:21;101580.66;;;22.69;100.00
42587;BME280;28216;53.362;-6.288;2023-07-20T07:43:47;101584.75;;;22.71;100.00
42587;BME280;28216;53.362;-6.288;2023-07-20T07:46:13;101583.50;;;22.49;100.00
42587;BME280;28216;53.362;-6.288;2023-07-20T07:48:40;101591.22;;;22.32;100.00
42587;BME280;28216;53.362;-6.288;2023-07-20T07:51:06;101586.31;;;21.91;100.00
42587;BME280;28216;53.362;-6.288;2023-07-20T07:53:32;101590.41;;;21.36;100.00
42587;BME280;28216;53.362;-6.288;2023-07-20T07:55:59;101590.03;;;21.12;100.00
42587;BME280;28216;53.362;-6.288;2023-07-20T07:58:25;101595.41;;;20.66;100.00
42587;BME280;28216;53.362;-6.288;2023-07-20T08:00:51;101598.28;;;20.71;100.00
42587;BME280;28216;53.362;-6.288;2023-07-20T08:03:16;101590.06;;;20.53;100.00
42587;BME280;28216;53.362;-6.288;2023-07-20T08:05:42;101589.88;;;20.94;100.00
42587;BME280;28216;53.362;-6.288;2023-07-20T08:08:07;101583.19;;;21.56;100.00
42587;BME280;28216;53.362;-6.288;2023-07-20T08:10:34;101582.78;;;22.04;100.00
42587;BME280;28216;53.362;-6.288;2023-07-20T08:13:02;101584.59;;;22.66;100.00
42587;BME280;28216;53.362;-6.288;2023-07-20T08:15:27;101577.22;;;23.11;100.00
42587;BME280;28216;53.362;-6.288;2023-07-20T08:17:52;101582.56;;;23.30;100.00
42587;BME280;28216;53.362;-6.288;2023-07-20T08:20:18;101585.50;;;23.76;100.00
42587;BME280;28216;53.362;-6.288;2023-07-20T08:22:44;101572.47;;;23.98;100.00
42587;BME280;28216;53.362;-6.288;2023-07-20T08:25:09;101584.97;;;24.16;100.00
42587;BME280;28216;53.362;-6.288;2023-07-20T08:27:36;101579.03;;;24.67;100.00
42587;BME280;28216;53.362;-6.288;2023-07-20T08:30:02;101570.53;;;24.82;100.00
42587;BME280;28216;53.362;-6.288;2023-07-20T08:32:28;101572.97;;;24.95;100.00
42587;BME280;28216;53.362;-6.288;2023-07-20T08:34:53;101572.84;;;25.25;100.00
42587;BME280;28216;53.362;-6.288;2023-07-20T08:37:19;101574.00;;;25.18;100.00
42587;BME280;28216;53.362;-6.288;2023-07-20T08:39:44;101571.75;;;25.50;100.00
42587;BME280;28216;53.362;-6.288;2023-07-20T08:42:10;101577.94;;;25.50;100.00
42587;BME280;28216;53.362;-6.288;2023-07-20T08:44:38;101574.19;;;25.51;100.00
42587;BME280;28216;53.362;-6.288;2023-07-20T08:47:05;101570.31;;;25.59;100.00
42587;BME280;28216;53.362;-6.288;2023-07-20T08:49:32;101572.66;;;25.67;100.00
42587;BME280;28216;53.362;-6.288;2023-07-20T08:51:59;101573.13;;;25.52;100.00
42587;BME280;28216;53.362;-6.288;2023-07-20T08:54:28;101571.91;;;26.00;100.00
42587;BME280;28216;53.362;-6.288;2023-07-20T08:56:56;101574.59;;;26.00;100.00
42587;BME280;28216;53.362;-6.288;2023-07-20T08:59:23;101564.47;;;25.90;100.00
42587;BME280;28216;53.362;-6.288;2023-07-20T09:01:51;101565.25;;;26.03;100.00
42587;BME280;28216;53.362;-6.288;2023-07-20T09:04:19;101563.88;;;26.17;100.00
42587;BME280;28216;53.362;-6.288;2023-07-20T09:06:44;101566.25;;;26.30;100.00
42587;BME280;28216;53.362;-6.288;2023-07-20T09:09:10;101563.72;;;26.07;100.00
42587;BME280;28216;53.362;-6.288;2023-07-20T09:11:36;101565.34;;;25.79;100.00
42587;BME280;28216;53.362;-6.288;2023-07-20T09:14:06;101564.63;;;25.84;100.00
42587;BME280;28216;53.362;-6.288;2023-07-20T09:16:32;101569.84;;;25.10;100.00
42587;BME280;28216;53.362;-6.288;2023-07-20T09:19:00;101558.63;;;24.55;100.00
42587;BME280;28216;53.362;-6.288;2023-07-20T09:21:29;101562.25;;;24.19;100.00
42587;BME280;28216;53.362;-6.288;2023-07-20T09:23:58;101560.75;;;23.81;100.00
42587;BME280;28216;53.362;-6.288;2023-07-20T09:26:24;101553.28;;;23.35;100.00
42587;BME280;28216;53.362;-6.288;2023-07-20T09:28:52;101561.88;;;23.00;100.00
42587;BME280;28216;53.362;-6.288;2023-07-20T09:31:19;101559.44;;;22.74;100.00
42587;BME280;28216;53.362;-6.288;2023-07-20T09:33:46;101556.06;;;22.35;100.00
42587;BME280;28216;53.362;-6.288;2023-07-20T09:36:12;101565.34;;;21.95;100.00
42587;BME280;28216;53.362;-6.288;2023-07-20T09:38:38;101564.09;;;21.59;100.00
42587;BME280;28216;53.362;-6.288;2023-07-20T09:41:05;101561.31;;;21.21;100.00
42587;BME280;28216;53.362;-6.288;2023-07-20T09:43:34;101565.88;;;21.01;100.00
42587;BME280;28216;53.362;-6.288;2023-07-20T09:46:00;101567.13;;;20.65;100.00
42587;BME280;28216;53.362;-6.288;2023-07-20T09:48:26;101568.31;;;20.36;100.00
42587;BME280;28216;53.362;-6.288;2023-07-20T09:50:53;101563.59;;;20.25;100.00
42587;BME280;28216;53.362;-6.288;2023-07-20T09:53:19;101563.91;;;19.89;100.00
42587;BME280;28216;53.362;-6.288;2023-07-20T09:55:46;101562.03;;;19.76;100.00
42587;BME280;28216;53.362;-6.288;2023-07-20T09:58:13;101560.81;;;19.79;100.00
42587;BME280;28216;53.362;-6.288;2023-07-20T10:00:40;101566.34;;;19.77;100.00
42587;BME280;28216;53.362;-6.288;2023-07-20T10:03:10;101563.69;;;19.84;100.00
42587;BME280;28216;53.362;-6.288;2023-07-20T10:05:40;101561.25;;;19.95;100.00
42587;BME280;28216;53.362;-6.288;2023-07-20T10:08:12;101558.03;;;20.07;100.00
42587;BME280;28216;53.362;-6.288;2023-07-20T10:10:41;101557.47;;;20.31;100.00
42587;BME280;28216;53.362;-6.288;2023-07-20T10:13:13;101559.53;;;20.49;100.00
42587;BME280;28216;53.362;-6.288;2023-07-20T10:15:50;101552.34;;;20.36;100.00
42587;BME280;28216;53.362;-6.288;2023-07-20T10:18:38;101549.69;;;20.82;100.00
42587;BME280;28216;53.362;-6.288;2023-07-20T10:21:07;101547.78;;;21.16;100.00
42587;BME280;28216;53.362;-6.288;2023-07-20T10:23:34;101550.56;;;21.47;100.00
42587;BME280;28216;53.362;-6.288;2023-07-20T10:26:01;101546.47;;;21.45;100.00
42587;BME280;28216;53.362;-6.288;2023-07-20T10:28:27;101548.44;;;21.05;100.00
42587;BME280;28216;53.362;-6.288;2023-07-20T10:30:53;101559.72;;;21.00;100.00
42587;BME280;28216;53.362;-6.288;2023-07-20T10:33:18;101558.09;;;20.92;100.00
42587;BME280;28216;53.362;-6.288;2023-07-20T10:35:56;101559.72;;;20.74;100.00
42587;BME280;28216;53.362;-6.288;2023-07-20T10:38:43;101560.13;;;20.71;100.00
42587;BME280;28216;53.362;-6.288;2023-07-20T10:41:19;101564.03;;;20.55;100.00
42587;BME280;28216;53.362;-6.288;2023-07-20T10:43:45;101563.22;;;20.41;100.00
42587;BME280;28216;53.362;-6.288;2023-07-20T10:46:12;101563.00;;;20.36;100.00
42587;BME280;28216;53.362;-6.288;2023-07-20T10:49:06;101559.69;;;20.14;100.00
42587;BME280;28216;53.362;-6.288;2023-07-20T10:51:44;101569.06;;;20.04;100.00
42587;BME280;28216;53.362;-6.288;2023-07-20T10:56:42;101571.00;;;19.62;100.00
42587;BME280;28216;53.362;-6.288;2023-07-20T10:59:37;101571.03;;;19.34;100.00
42587;BME280;28216;53.362;-6.288;2023-07-20T11:02:06;101564.44;;;19.30;100.00
42587;BME280;28216;53.362;-6.288;2023-07-20T11:04:42;101575.16;;;19.36;100.00
42587;BME280;28216;53.362;-6.288;2023-07-20T11:07:08;101566.19;;;19.44;100.00
42587;BME280;28216;53.362;-6.288;2023-07-20T11:09:38;101563.94;;;19.48;100.00
42587;BME280;28216;53.362;-6.288;2023-07-20T11:12:17;101552.16;;;19.63;100.00
42587;BME280;28216;53.362;-6.288;2023-07-20T11:14:56;101562.47;;;19.86;100.00
42587;BME280;28216;53.362;-6.288;2023-07-20T11:17:29;101546.72;;;19.98;100.00
42587;BME280;28216;53.362;-6.288;2023-07-20T11:20:02;101547.81;;;20.10;100.00
42587;BME280;28216;53.362;-6.288;2023-07-20T11:22:30;101542.50;;;20.30;100.00
42587;BME280;28216;53.362;-6.288;2023-07-20T11:24:58;101545.59;;;20.67;100.00
42587;BME280;28216;53.362;-6.288;2023-07-20T11:27:24;101533.25;;;20.99;100.00
42587;BME280;28216;53.362;-6.288;2023-07-20T11:29:50;101533.81;;;21.20;100.00
42587;BME280;28216;53.362;-6.288;2023-07-20T11:32:23;101529.50;;;21.33;100.00
42587;BME280;28216;53.362;-6.288;2023-07-20T11:34:52;101518.41;;;21.29;100.00
42587;BME280;28216;53.362;-6.288;2023-07-20T11:37:18;101518.16;;;21.44;100.00
42587;BME280;28216;53.362;-6.288;2023-07-20T11:39:43;101522.00;;;21.54;100.00
42587;BME280;28216;53.362;-6.288;2023-07-20T11:42:13;101518.81;;;21.77;100.00
42587;BME280;28216;53.362;-6.288;2023-07-20T11:44:39;101518.03;;;22.02;100.00
42587;BME280;28216;53.362;-6.288;2023-07-20T11:47:11;101511.69;;;22.03;100.00
42587;BME280;28216;53.362;-6.288;2023-07-20T11:49:43;101508.31;;;22.14;100.00
42587;BME280;28216;53.362;-6.288;2023-07-20T11:52:23;101508.59;;;22.06;100.00
42587;BME280;28216;53.362;-6.288;2023-07-20T11:55:01;101516.00;;;22.04;100.00
42587;BME280;28216;53.362;-6.288;2023-07-20T11:57:28;101506.25;;;21.84;100.00
42587;BME280;28216;53.362;-6.288;2023-07-20T11:59:57;101508.09;;;21.46;100.00
42587;BME280;28216;53.362;-6.288;2023-07-20T12:02:24;101509.16;;;21.38;100.00
42587;BME280;28216;53.362;-6.288;2023-07-20T12:04:51;101505.28;;;21.21;100.00
42587;BME280;28216;53.362;-6.288;2023-07-20T12:07:25;101506.34;;;21.13;100.00
42587;BME280;28216;53.362;-6.288;2023-07-20T12:10:08;101509.22;;;21.12;100.00
42587;BME280;28216;53.362;-6.288;2023-07-20T12:12:43;101511.53;;;20.95;100.00
42587;BME280;28216;53.362;-6.288;2023-07-20T12:15:19;101505.38;;;20.94;100.00
42587;BME280;28216;53.362;-6.288;2023-07-20T12:17:46;101494.75;;;20.75;100.00
42587;BME280;28216;53.362;-6.288;2023-07-20T12:20:24;101502.75;;;20.61;100.00
42587;BME280;28216;53.362;-6.288;2023-07-20T12:22:51;101498.69;;;20.39;100.00
42587;BME280;28216;53.362;-6.288;2023-07-20T12:25:16;101498.47;;;20.41;100.00
42587;BME280;28216;53.362;-6.288;2023-07-20T12:27:51;101497.44;;;20.55;100.00
42587;BME280;28216;53.362;-6.288;2023-07-20T12:30:19;101498.44;;;20.67;100.00
42587;BME280;28216;53.362;-6.288;2023-07-20T12:32:47;101503.78;;;20.60;100.00
42587;BME280;28216;53.362;-6.288;2023-07-20T12:35:13;101505.22;;;20.56;100.00
42587;BME280;28216;53.362;-6.288;2023-07-20T12:37:39;101502.16;;;20.59;100.00
42587;BME280;28216;53.362;-6.288;2023-07-20T12:40:06;101493.97;;;20.54;100.00